• Join FlightAware (Why Join?)
  • Login
  • US Flag 
06:23PM EDT


 

Airport Tracker/Info


-or-


 

Live Flight TrackerFlight Track Log ✈ AWE710 ✈ 04-Apr-2013 ✈ KSFO - KPHL

Flight Track Log - Related Links

Times and Time Zones

All times are in EDT time to prevent confusion due to time zone crossing. See the AWE710 flight status page for this flight to view local times or setup timezone preferences in your user account.

Time Position Orientation Groundspeed Altitude Reporting Facility
EDT Latitude Longitude Course Direction KTS MPH feet Rate Location/Type
11:48AM 37.6500 -122.4333 50° Northeast 171 197 2,600  Level Northern Cal TRACON
11:49AM 37.6667 -122.4833 49° Northeast 185 213 3,500 1,080 Climbing Northern Cal TRACON
11:50AM 37.6167 -122.3773 90° East  Level FlightAware Approximate
11:50AM 37.7600 -122.5340 38° Northeast 297 342 5,600  Level FlightAware
11:51AM 37.7190 -122.2644 38° Northeast  Level FlightAware Approximate
11:51AM 37.7990 -122.5180 18° North 303 349 6,600  Level FlightAware
11:51AM 37.8140 -122.5030 38° Northeast 303 349 7,100 2,160 Climbing FlightAware
11:51AM 37.8290 -122.4810 49° Northeast 303 349 7,700 2,100 Climbing FlightAware
11:52AM 37.8520 -122.4470 49° Northeast 309 356 8,500 1,800 Climbing FlightAware
11:52AM 37.8790 -122.4060 50° Northeast 317 365 9,400 1,620 Climbing FlightAware
11:53AM 37.9180 -122.3470 50° Northeast 334 384 10,400 1,080 Climbing FlightAware
11:54AM 37.9660 -122.2760 49° Northeast 369 425 11,000 840 Climbing FlightAware
11:54AM 38.0110 -122.2090 50° Northeast 397 457 11,600 1,020 Climbing FlightAware
11:55AM 38.0620 -122.1330 50° Northeast 418 481 12,400 1,380 Climbing FlightAware
11:56AM 38.1170 -122.0490 50° Northeast 424 488 13,600 1,620 Climbing FlightAware
11:56AM 38.1680 -121.9720 50° Northeast 433 498 14,700 1,320 Climbing FlightAware
11:57AM 38.2200 -121.8930 50° Northeast 447 514 15,400 1,380 Climbing FlightAware
11:58AM 38.2810 -121.8000 50° Northeast 449 517 16,700 1,680 Climbing FlightAware
11:59AM 38.3350 -121.7180 50° Northeast 454 522 17,800 1,500 Climbing FlightAware
11:59AM 38.3890 -121.6350 50° Northeast 458 527 18,700 1,080 Climbing FlightAware
12:00PM 38.4500 -121.5420 50° Northeast 471 542 19,400 1,200 Climbing FlightAware
12:01PM 38.5020 -121.4520 54° Northeast 472 543 20,400 1,320 Climbing FlightAware
12:01PM 38.5600 -121.3530 53° Northeast 475 547 21,300 1,020 Climbing FlightAware
12:02PM 38.6140 -121.2600 53° Northeast 484 557 21,900 900 Climbing FlightAware
12:03PM 38.6680 -121.1670 53° Northeast 492 566 22,500 1,020 Climbing FlightAware
12:03PM 38.7300 -121.0600 53° Northeast 496 571 23,400 900 Climbing FlightAware
12:04PM 38.7840 -120.9660 54° Northeast 500 575 23,800 720 Climbing FlightAware
12:05PM 38.8460 -120.8590 53° Northeast 505 581 24,500 900 Climbing FlightAware
12:06PM 38.9020 -120.7610 54° Northeast 509 586 25,100 780 Climbing FlightAware
12:06PM 38.9600 -120.6620 53° Northeast 516 594 25,600 660 Climbing FlightAware
12:07PM 39.0220 -120.5530 54° Northeast 524 603 26,100 660 Climbing FlightAware
12:08PM 39.0790 -120.4550 53° Northeast 526 605 26,600 780 Climbing FlightAware
12:08PM 39.1370 -120.3520 54° Northeast 521 600 27,200 720 Climbing FlightAware
12:09PM 39.1494 -120.3297 54° Northeast 527 606 27,300 1,020 Climbing Salt Lake Center
12:10PM 39.2460 -120.1620 53° Northeast 522 601 28,500 1,020 Climbing FlightAware
12:10PM 39.2372 -120.1786 61° Northeast 527 606 28,400 1,260 Descending Salt Lake Center
12:11PM 39.3450 -119.9870 54° Northeast 506 582 30,000 720 Climbing FlightAware
12:11PM 39.3290 -120.0160 235° Southwest 513 590 29,700 60 Descending FlightAware
12:12PM 39.3550 -119.9690 54° Northeast 511 588 30,100 1,020 Climbing FlightAware
12:13PM 39.4130 -119.8670 54° Northeast 499 574 31,000 600 Climbing FlightAware
12:13PM 39.4710 -119.7640 54° Northeast 498 573 31,000  Level FlightAware
12:14PM 39.5390 -119.6380 55° Northeast 488 562 31,000  Level FlightAware
12:15PM 39.5810 -119.5380 61° Northeast 493 567 31,000  Level FlightAware
12:15PM 39.6230 -119.4400 61° Northeast 497 572 31,000  Level FlightAware
12:16PM 39.6700 -119.3300 61° Northeast 497 572 31,000  Level FlightAware
12:17PM 39.7110 -119.2330 61° Northeast 500 575 31,000  Level FlightAware
12:17PM 39.7490 -119.1430 61° Northeast 500 575 31,000  Level FlightAware
12:18PM 39.7870 -119.0540 61° Northeast 500 575 31,000  Level FlightAware
12:19PM 39.8350 -118.9420 61° Northeast 500 575 31,000  Level FlightAware
12:20PM 39.8730 -118.8520 61° Northeast 500 575 31,000  Level FlightAware
12:20PM 39.9110 -118.7630 61° Northeast 500 575 31,000  Level FlightAware
12:21PM 39.9490 -118.6730 61° Northeast 500 575 31,000  Level FlightAware
12:22PM 39.9870 -118.5830 61° Northeast 500 575 31,000  Level FlightAware
12:22PM 40.0350 -118.4710 61° Northeast 500 575 31,000  Level FlightAware
12:23PM 40.0730 -118.3810 61° Northeast 500 575 31,000  Level FlightAware
12:24PM 40.1110 -118.2910 61° Northeast 500 575 31,000  Level FlightAware
12:24PM 40.1490 -118.2010 61° Northeast 500 575 31,000  Level FlightAware
12:25PM 40.1880 -118.1110 60° Northeast 500 575 31,000  Level FlightAware
12:26PM 40.2350 -117.9990 61° Northeast 500 575 31,000  Level FlightAware
12:26PM 40.3272 -117.5594 61° Northeast 485 558 31,000  Level Oakland Center
12:27PM 40.3597 -117.4544 68° East 485 558 31,000  Level Salt Lake Center
12:28PM 40.4150 -117.2694 69° East 486 559 31,000  Level Salt Lake Center
12:29PM 40.4622 -117.1086 69° East 489 563 31,000  Level Salt Lake Center
12:30PM 40.5108 -116.9453 69° East 493 567 31,000  Level Salt Lake Center
12:31PM 40.5661 -116.7522 69° East 494 568 31,000  Level Salt Lake Center
12:32PM 40.6125 -116.5897 69° East 493 567 31,000  Level Salt Lake Center
12:33PM 40.6594 -116.4278 69° East 493 567 31,000  Level Salt Lake Center
12:34PM 40.7133 -116.2392 69° East 492 566 31,000  Level Salt Lake Center
12:35PM 40.7592 -116.0786 69° East 490 564 31,000  Level Salt Lake Center
12:36PM 40.8119 -115.8894 70° East 491 565 31,000  Level Salt Lake Center
12:37PM 40.8575 -115.7267 70° East 492 566 31,000  Level Salt Lake Center
12:38PM 40.9106 -115.5339 70° East 496 571 31,000  Level Salt Lake Center
12:39PM 40.9556 -115.3694 70° East 497 572 31,000  Level Salt Lake Center
12:40PM 41.0067 -115.1858 70° East 498 573 31,000  Level Salt Lake Center
12:41PM 41.0531 -115.0136 70° East 495 570 31,000  Level Salt Lake Center
12:42PM 41.0969 -114.8497 70° East 494 568 31,000  Level Salt Lake Center
12:44PM 41.1472 -114.6594 70° East 491 565 31,000  Level Salt Lake Center
12:45PM 41.1900 -114.4967 81° East 490 564 31,000  Level Salt Lake Center
12:46PM 41.2403 -114.3081 81° East 487 560 31,000  Level Salt Lake Center
12:47PM 41.2825 -114.1483 81° East 483 556 31,000  Level Salt Lake Center
12:48PM 41.3242 -113.9886 81° East 480 552 31,000  Level Salt Lake Center
12:49PM 41.3650 -113.8210 70° East 476 548 31,000  Level FlightAware
12:49PM 41.3810 -113.6790 81° East 476 548 31,000  Level FlightAware
12:50PM 41.3936 -113.6361 81° East 474 545 31,000  Level Salt Lake Center
12:51PM 41.4117 -113.4392 83° East 476 548 31,000  Level Salt Lake Center
12:52PM 41.4267 -113.2758 83° East 478 550 31,000  Level Salt Lake Center
12:53PM 41.4483 -113.0800 83° East 478 550 31,000  Level Salt Lake Center
12:54PM 41.4656 -112.9050 82° East 481 554 31,000  Level Salt Lake Center
12:55PM 41.4869 -112.7147 82° East 482 555 31,000  Level Salt Lake Center
12:56PM 41.5053 -112.5378 82° East 481 554 31,000  Level Salt Lake Center
12:57PM 41.5242 -112.3608 83° East 481 554 31,000  Level Salt Lake Center
12:58PM 41.5430 -112.1860 83° East 482 555 31,000  Level FlightAware
12:59PM 41.5550 -112.0690 82° East 483 556 31,000  Level FlightAware
12:59PM 41.5670 -111.9440 83° East 484 557 31,000  Level FlightAware
01:00PM 41.5800 -111.8180 82° East 483 556 31,000  Level FlightAware
01:01PM 41.5910 -111.7060 82° East 483 556 31,000  Level FlightAware
01:01PM 41.6040 -111.5660 83° East 484 557 31,000  Level FlightAware
01:02PM 41.6150 -111.4490 83° East 484 557 31,000  Level FlightAware
01:03PM 41.6280 -111.3170 82° East 486 559 31,000  Level FlightAware
01:03PM 41.6370 -111.2110 83° East 486 559 31,000  Level FlightAware
01:04PM 41.6470 -111.0870 84° East 486 559 31,000  Level FlightAware
01:05PM 41.6550 -110.9850 84° East 486 559 31,000  Level FlightAware
01:05PM 41.6630 -110.8830 84° East 486 559 31,000  Level FlightAware
01:06PM 41.6710 -110.7810 84° East 486 559 31,000  Level FlightAware
01:07PM 41.6810 -110.6540 84° East 486 559 31,000  Level FlightAware
01:08PM 41.6890 -110.5520 84° East 486 559 31,000  Level FlightAware
01:08PM 41.6970 -110.4500 84° East 486 559 31,000  Level FlightAware
01:09PM 41.7050 -110.3490 84° East 486 559 31,000  Level FlightAware
01:10PM 41.7150 -110.2210 84° East 486 559 31,000  Level FlightAware
01:10PM 41.7230 -110.1190 84° East 486 559 31,000  Level FlightAware
01:11PM 41.7310 -110.0180 84° East 486 559 31,000  Level FlightAware
01:12PM 41.7390 -109.9160 84° East 486 559 31,000  Level FlightAware
01:12PM 41.7470 -109.8140 84° East 486 559 31,000  Level FlightAware
01:13PM 41.7570 -109.6860 84° East 486 559 31,000  Level FlightAware
01:14PM 41.8003 -109.2819 84° East 488 562 31,000  Level Denver Center
01:15PM 41.8153 -109.0772 84° East 490 564 31,000  Level Denver Center
01:16PM 41.8278 -108.9025 84° East 489 563 31,000  Level Denver Center
01:17PM 41.8447 -108.6692 84° East 492 566 31,000  Level Salt Lake Center
01:18PM 41.8558 -108.4928 85° East 494 568 31,000  Level Salt Lake Center
01:19PM 41.8703 -108.3186 84° East 493 567 31,100  Climbing Salt Lake Center
01:20PM 41.8831 -108.1158 85° East 490 564 31,000 -60 Descending Salt Lake Center
01:21PM 41.8931 -107.9414 86° East 489 563 31,000  Level Salt Lake Center
01:23PM 41.9061 -107.7392 85° East 489 563 31,000  Level Salt Lake Center
01:23PM 41.9153 -107.5936 85° East 487 560 31,000  Level Denver Center
01:24PM 41.9264 -107.3892 86° East 491 565 31,000  Level Denver Center
01:26PM 41.9369 -107.2164 86° East 487 560 31,000  Level Denver Center
01:27PM 41.9492 -106.9872 86° East 484 557 31,000  Level Denver Center
01:28PM 41.9611 -106.7881 86° East 481 554 31,000  Level Denver Center
01:29PM 41.9692 -106.6175 85° East 480 552 31,000  Level Denver Center
01:30PM 41.9800 -106.4233 85° East 474 545 31,000  Level Denver Center
01:31PM 41.9890 -106.2320 86° East 479 551 31,000  Level FlightAware
01:32PM 41.9950 -106.1000 86° East 481 554 31,000  Level FlightAware
01:32PM 42.0010 -105.9960 86° East 481 554 31,000 60 Level FlightAware
01:33PM 42.0090 -105.8590 85° East 482 555 31,100 60 Climbing FlightAware
01:34PM 42.0170 -105.7360 85° East 482 555 31,100  Level FlightAware
01:34PM 42.0230 -105.6350 85° East 482 555 31,100  Level FlightAware
01:35PM 42.0300 -105.5330 85° East 482 555 31,100  Level FlightAware
01:36PM 42.0370 -105.4310 85° East 482 555 31,100  Level FlightAware
01:36PM 42.0430 -105.3300 85° East 482 555 31,100 -120 Level FlightAware
01:37PM 42.0523 -105.1370 86° East 480 552 31,000 -120 Descending FlightAware ADS-B
01:38PM 42.0574 -105.0480 86° East 480 552 31,000  Level FlightAware ADS-B
01:38PM 42.0623 -104.9570 86° East 480 552 31,000  Level FlightAware ADS-B
01:39PM 42.0673 -104.8670 86° East 480 552 31,000  Level FlightAware ADS-B
01:39PM 42.0721 -104.7760 86° East 480 552 31,000  Level FlightAware ADS-B
01:40PM 42.0774 -104.6810 86° East 481 554 31,000  Level FlightAware ADS-B
01:40PM 42.0820 -104.5910 86° East 481 554 31,000  Level FlightAware ADS-B
01:41PM 42.0867 -104.4990 86° East 481 554 31,000  Level FlightAware ADS-B
01:41PM 42.0914 -104.4070 86° East 481 554 31,000  Level FlightAware ADS-B
01:42PM 42.0959 -104.3160 86° East 481 554 31,000  Level FlightAware ADS-B
01:42PM 42.1003 -104.2270 86° East 479 551 31,000  Level FlightAware ADS-B
01:43PM 42.1055 -104.1190 86° East 478 550 31,000  Level FlightAware ADS-B
01:43PM 42.1098 -104.0300 86° East 476 548 31,000  Level FlightAware ADS-B
01:44PM 42.1138 -103.9410 87° East 474 545 31,000  Level FlightAware ADS-B
01:44PM 42.1180 -103.8510 86° East 472 543 31,000  Level FlightAware ADS-B
01:45PM 42.1220 -103.7620 87° East 470 541 31,000  Level FlightAware ADS-B
01:45PM 42.1262 -103.6690 86° East 468 539 31,000  Level FlightAware ADS-B
01:46PM 42.1302 -103.5760 87° East 467 537 31,000  Level FlightAware ADS-B
01:46PM 42.1343 -103.4810 87° East 467 537 31,000  Level FlightAware ADS-B
01:47PM 42.1384 -103.3820 87° East 467 537 31,000  Level FlightAware ADS-B
01:47PM 42.1420 -103.2940 87° East 468 539 31,000  Level FlightAware ADS-B
01:48PM 42.1460 -103.1960 87° East 469 540 31,000  Level FlightAware ADS-B
01:49PM 42.1496 -103.1050 87° East 470 541 31,000  Level FlightAware ADS-B
01:49PM 42.1535 -103.0050 87° East 472 543 31,000 180 Level FlightAware ADS-B
01:50PM 42.1571 -102.9100 87° East 473 544 31,200 480 Climbing FlightAware ADS-B
01:50PM 42.1604 -102.8210 87° East 474 545 31,500 840 Climbing FlightAware ADS-B
01:51PM 42.1638 -102.7290 87° East 471 542 32,100 1,140 Climbing FlightAware ADS-B
01:51PM 42.1667 -102.6410 87° East 468 539 32,700 900 Climbing FlightAware ADS-B
01:52PM 42.1698 -102.5530 87° East 468 539 33,000 240 Climbing FlightAware ADS-B
01:52PM 42.1729 -102.4640 87° East 465 535 33,000  Level FlightAware ADS-B
01:53PM 42.1759 -102.3760 87° East 466 536 33,000  Level FlightAware ADS-B
01:54PM 42.1819 -102.1847 87° East 468 539 33,000  Level Denver Center
01:55PM 42.1850 -102.0458 88° East 466 536 33,000  Level Denver Center
01:56PM 42.1917 -101.8256 88° East 460 529 33,000  Level Denver Center
01:57PM 42.1964 -101.6581 88° East 466 536 33,000  Level Denver Center
01:58PM 42.2014 -101.4586 88° East 477 549 33,000  Level Denver Center
01:59PM 42.2061 -101.2889 88° East 476 548 33,000  Level Denver Center
02:00PM 42.2097 -101.0908 89° East 474 545 33,000  Level Denver Center
02:01PM 42.2128 -100.9189 89° East 478 550 33,000  Level Denver Center
02:02PM 42.2169 -100.7217 88° East 470 541 33,000  Level Denver Center
02:03PM 42.2200 -100.5506 89° East 475 547 33,000  Level Denver Center
02:04PM 42.2233 -100.3536 89° East 469 540 33,000  Level Denver Center
02:05PM 42.2250 -100.1850 89° East 469 540 33,000  Level Denver Center
02:06PM 42.2264 -100.1153 88° East 464 534 33,000  Level Minneapolis Center
02:06PM 42.2286 -99.9897 89° East 466 536 33,000  Level Denver Center
02:07PM 42.2297 -99.8194 89° East 470 541 33,000  Level Denver Center
02:08PM 42.2317 -99.6233 89° East 468 539 33,000  Level Denver Center
02:09PM 42.2328 -99.4547 89° East 470 541 33,000  Level Denver Center
02:10PM 42.2347 -99.2872 89° East 468 539 33,000  Level Denver Center
02:11PM 42.2350 -99.2228 90° East 467 537 33,000  Level Minneapolis Center
02:12PM 42.2344 -99.0458 90° East 472 543 33,000  Level Minneapolis Center
02:13PM 42.2336 -98.8700 90° East 470 541 33,000  Level Minneapolis Center
02:14PM 42.2333 -98.6928 90° East 471 542 33,000  Level Minneapolis Center
02:15PM 42.2319 -98.5156 91° East 472 543 33,000  Level Minneapolis Center
02:16PM 42.2303 -98.3044 91° East 469 540 33,000  Level Minneapolis Center
02:17PM 42.2283 -98.1269 91° East 472 543 33,000  Level Minneapolis Center
02:18PM 42.2258 -97.9522 91° East 467 537 33,000  Level Minneapolis Center
02:19PM 42.2247 -97.7750 90° East 471 542 33,000  Level Minneapolis Center
02:20PM 42.2214 -97.5989 91° East 470 541 33,000  Level Minneapolis Center
02:21PM 42.2186 -97.4219 91° East 471 542 33,000  Level Minneapolis Center
02:22PM 42.2147 -97.2103 91° East 470 541 33,000  Level Minneapolis Center
02:23PM 42.2117 -97.0344 91° East 468 539 33,000  Level Minneapolis Center
02:24PM 42.2075 -96.8589 92° East 469 540 33,000  Level Minneapolis Center
02:25PM 42.2033 -96.6844 92° East 466 536 33,000  Level Minneapolis Center
02:26PM 42.1989 -96.5092 92° East 466 536 33,000  Level Minneapolis Center
02:27PM 42.1953 -96.3322 92° East 467 537 33,000  Level Minneapolis Center
02:28PM 42.1906 -96.1544 92° East 470 541 33,000  Level Minneapolis Center
02:29PM 42.1853 -95.9742 92° East 478 550 33,000  Level Minneapolis Center
02:30PM 42.1783 -95.7633 92° East 469 540 33,000  Level Minneapolis Center
02:31PM 42.1731 -95.5867 92° East 470 541 33,000  Level Minneapolis Center
02:32PM 42.1669 -95.4081 93° East 474 545 33,000  Level Minneapolis Center
02:33PM 42.1606 -95.2328 93° East 469 540 33,000  Level Minneapolis Center
02:35PM 42.1536 -95.0558 93° East 470 541 33,000  Level Minneapolis Center
02:36PM 42.1475 -94.9161 93° East 467 537 33,000  Level Minneapolis Center
02:37PM 42.1389 -94.7061 93° East 467 537 33,000  Level Minneapolis Center
02:38PM 42.1306 -94.4961 93° East 467 537 33,000  Level Minneapolis Center
02:39PM 42.1222 -94.3214 94° East 467 537 33,000  Level Minneapolis Center
02:40PM 42.1153 -94.1461 93° East 469 540 33,000  Level Minneapolis Center
02:41PM 42.1061 -93.9711 94° East 470 541 33,000  Level Minneapolis Center
02:42PM 42.0997 -93.8092 94° East 467 537 33,000  Level Minneapolis Center
02:43PM 42.0917 -93.6025 94° East 466 536 33,000  Level Minneapolis Center
02:44PM 42.0828 -93.4281 94° East 469 540 33,000  Level Minneapolis Center
02:45PM 42.0764 -93.2556 94° East 468 539 33,000  Level Minneapolis Center
02:46PM 42.0620 -92.9820 94° East 466 536 33,000  Level FlightAware
02:47PM 42.0570 -92.8450 93° East 467 537 33,000  Level FlightAware
02:48PM 42.0490 -92.6850 94° East 467 537 33,000  Level FlightAware
02:49PM 42.0430 -92.5790 94° East 469 540 33,000  Level FlightAware
02:50PM 42.0350 -92.4230 94° East 471 542 33,000  Level FlightAware
02:50PM 42.0270 -92.2790 94° East 473 544 33,000  Level FlightAware
02:51PM 42.0210 -92.1560 94° East 475 547 33,000  Level FlightAware
02:52PM 42.0140 -92.0340 94° East 478 550 33,000 60 Level FlightAware
02:53PM 42.0050 -91.8720 94° East 479 551 33,100 60 Climbing FlightAware
02:53PM 41.9990 -91.7620 94° East 478 550 33,100 -120 Level FlightAware
02:54PM 41.9910 -91.6210 94° East 476 548 33,000 -120 Descending FlightAware
02:55PM 41.9840 -91.5060 95° East 476 548 33,000  Level FlightAware
02:55PM 41.9770 -91.3840 94° East 476 548 33,000  Level FlightAware
02:56PM 41.9680 -91.2460 95° East 476 548 33,000  Level FlightAware
02:57PM 41.9610 -91.1230 94° East 477 549 33,000  Level FlightAware
02:58PM 41.9510 -90.9640 95° East 480 552 33,000  Level FlightAware
02:59PM 41.9400 -90.8030 95° East 482 555 33,000  Level FlightAware
02:59PM 41.9320 -90.6790 95° East 483 556 33,000  Level FlightAware
03:00PM 41.9240 -90.5580 95° East 483 556 33,000  Level FlightAware
03:01PM 41.9140 -90.4200 96° East 484 557 33,000  Level FlightAware
03:01PM 41.9060 -90.2980 95° East 484 557 33,000  Level FlightAware
03:02PM 41.8960 -90.1670 96° East 483 556 33,000  Level FlightAware
03:03PM 41.8880 -90.0450 95° East 482 555 33,000  Level FlightAware
03:04PM 41.8780 -89.9100 96° East 480 552 33,000  Level FlightAware
03:04PM 41.8700 -89.8010 96° East 479 551 33,000  Level FlightAware
03:05PM 41.8590 -89.6620 96° East 480 552 33,000  Level FlightAware
03:06PM 41.8500 -89.5460 96° East 479 551 33,000  Level FlightAware
03:06PM 41.8410 -89.4310 96° East 480 552 33,000  Level FlightAware
03:07PM 41.8320 -89.3070 96° East 480 552 33,000  Level FlightAware
03:08PM 41.8210 -89.1770 96° East 480 552 33,000  Level FlightAware
03:09PM 41.8110 -89.0430 96° East 480 552 33,000  Level FlightAware
03:09PM 41.8020 -88.9320 96° East 479 551 33,000  Level FlightAware
03:10PM 41.7910 -88.8060 97° East 477 549 33,000  Level FlightAware
03:11PM 41.7810 -88.6850 96° East 476 548 33,000  Level FlightAware
03:11PM 41.7710 -88.5620 96° East 475 547 33,000  Level FlightAware
03:12PM 41.7610 -88.4310 96° East 475 547 33,000  Level FlightAware
03:13PM 41.7520 -88.3120 96° East 474 545 33,000  Level FlightAware
03:13PM 41.7420 -88.1950 96° East 475 547 33,000  Level FlightAware
03:14PM 41.7320 -88.0580 96° East 475 547 33,000  Level FlightAware
03:15PM 41.7220 -87.9440 97° East 477 549 33,000  Level FlightAware
03:15PM 41.7120 -87.8190 96° East 478 550 33,000  Level FlightAware
03:16PM 41.7010 -87.6900 96° East 479 551 33,000  Level FlightAware
03:17PM 41.6900 -87.5590 96° East 478 550 33,000  Level FlightAware
03:18PM 41.6810 -87.4490 96° East 478 550 33,000  Level FlightAware
03:18PM 41.6690 -87.3070 96° East 476 548 33,000  Level FlightAware
03:19PM 41.6590 -87.1960 97° East 475 547 33,000  Level FlightAware
03:20PM 41.6490 -87.0850 97° East 474 545 33,000  Level FlightAware
03:20PM 41.6380 -86.9570 97° East 474 545 33,000  Level FlightAware
03:21PM 41.6270 -86.8350 97° East 474 545 33,000  Level FlightAware
03:22PM 41.6150 -86.7100 97° East 476 548 33,000  Level FlightAware
03:23PM 41.6040 -86.5850 97° East 481 554 33,000  Level FlightAware
03:23PM 41.5940 -86.4770 97° East 484 557 33,000 60 Level FlightAware
03:24PM 41.5790 -86.3240 97° East 487 560 33,100 60 Climbing FlightAware
03:25PM 41.5670 -86.2030 98° East 487 560 33,100 -120 Level FlightAware
03:25PM 41.5550 -86.0760 97° East 486 559 33,000 -120 Descending FlightAware
03:26PM 41.5430 -85.9540 97° East 485 558 33,000  Level FlightAware
03:27PM 41.5310 -85.8360 98° East 485 558 33,000  Level FlightAware
03:27PM 41.5180 -85.7030 97° East 485 558 33,000  Level FlightAware
03:28PM 41.5060 -85.5870 98° East 485 558 33,000  Level FlightAware
03:29PM 41.4930 -85.4640 98° East 487 560 33,000  Level FlightAware
03:29PM 41.4830 -85.3640 98° East 488 562 33,000  Level FlightAware
03:30PM 41.4670 -85.2160 98° East 489 563 33,000  Level FlightAware
03:31PM 41.4540 -85.0920 98° East 489 563 33,000  Level FlightAware
03:32PM 41.4400 -84.9570 98° East 489 563 33,000  Level FlightAware
03:32PM 41.4250 -84.8230 98° East 489 563 33,000  Level FlightAware
03:33PM 41.4120 -84.7030 98° East 489 563 33,000  Level FlightAware
03:34PM 41.3990 -84.5870 98° East 488 562 33,000  Level FlightAware
03:34PM 41.3840 -84.4500 98° East 486 559 33,000  Level FlightAware
03:35PM 41.3710 -84.3370 99° East 485 558 33,000  Level FlightAware
03:36PM 41.3560 -84.2000 98° East 484 557 33,000  Level FlightAware
03:37PM 41.3420 -84.0850 99° East 485 558 33,000  Level FlightAware
03:37PM 41.3290 -83.9710 99° East 485 558 33,000  Level FlightAware
03:38PM 41.3130 -83.8310 99° East 484 557 33,000  Level FlightAware
03:39PM 41.2990 -83.7140 99° East 485 558 33,000  Level FlightAware
03:39PM 41.2830 -83.5830 99° East 486 559 33,000  Level FlightAware
03:40PM 41.2690 -83.4670 99° East 487 560 33,000  Level FlightAware
03:41PM 41.2540 -83.3460 99° East 489 563 33,000  Level FlightAware
03:41PM 41.2370 -83.2110 99° East 490 564 33,000  Level FlightAware
03:42PM 41.2230 -83.0970 99° East 491 565 33,000  Level FlightAware
03:43PM 41.2080 -82.9740 99° East 490 564 33,000  Level FlightAware
03:44PM 41.1910 -82.8440 100° East 490 564 33,000  Level FlightAware
03:44PM 41.1770 -82.7280 99° East 490 564 33,000  Level FlightAware
03:45PM 41.1590 -82.5880 100° East 492 566 33,000  Level FlightAware
03:46PM 41.1430 -82.4710 100° East 491 565 33,000  Level FlightAware
03:46PM 41.1260 -82.3380 100° East 490 564 33,000  Level FlightAware
03:47PM 41.1100 -82.2200 100° East 490 564 33,000  Level FlightAware
03:48PM 41.0930 -82.0890 100° East 491 565 33,000  Level FlightAware
03:48PM 41.0770 -81.9700 100° East 491 565 33,000  Level FlightAware
03:49PM 41.0600 -81.8480 100° East 492 566 33,000  Level FlightAware
03:50PM 41.0440 -81.7280 100° East 492 566 33,000  Level FlightAware
03:51PM 41.0260 -81.5980 100° East 493 567 33,000  Level FlightAware
03:51PM 41.0090 -81.4800 101° East 491 565 33,000  Level FlightAware
03:52PM 40.9910 -81.3480 100° East 492 566 33,000  Level FlightAware
03:53PM 40.9740 -81.2290 101° East 492 566 33,000  Level FlightAware
03:53PM 40.9580 -81.1130 100° East 494 568 33,000  Level FlightAware
03:54PM 40.9380 -80.9740 101° East 494 568 33,000  Level FlightAware
03:55PM 40.9200 -80.8560 101° East 495 570 33,000  Level FlightAware
03:55PM 40.9010 -80.7260 101° East 496 571 33,000  Level FlightAware
03:56PM 40.8840 -80.6060 101° East 498 573 33,000  Level FlightAware
03:57PM 40.8630 -80.4690 101° East 499 574 33,000  Level FlightAware
03:58PM 40.8450 -80.3480 101° East 499 574 33,000  Level FlightAware
03:58PM 40.8240 -80.2330 104° East 493 567 33,000  Level FlightAware
03:59PM 40.7870 -80.1060 111° Southeast 483 556 33,000  Level FlightAware
04:00PM 40.7490 -80.0020 116° Southeast 483 556 33,000  Level FlightAware
04:00PM 40.7100 -79.8940 115° Southeast 484 557 33,000  Level FlightAware
04:01PM 40.6660 -79.7750 116° Southeast 484 557 33,000  Level FlightAware
04:02PM 40.6300 -79.6750 115° Southeast 474 545 33,000  Level FlightAware
04:02PM 40.5930 -79.5750 116° Southeast 469 540 33,000  Level FlightAware
04:03PM 40.5520 -79.4610 115° Southeast 472 543 33,000  Level FlightAware
04:04PM 40.5210 -79.3730 115° Southeast 472 543 33,000  Level FlightAware
04:04PM 40.4890 -79.2840 115° Southeast 472 543 33,000 60 Level FlightAware
04:05PM 40.4380 -79.1560 118° Southeast 482 555 33,100  Climbing FlightAware
04:05PM 40.4208 -79.1486 83° East 473 544 33,000 -120 Descending Cleveland Center
04:06PM 40.3361 -79.0333 82° East 450 518 33,000  Level Cleveland Center
04:07PM 40.2550 -78.9047 81° East 450 518 33,000 -720 Level Cleveland Center
04:08PM 40.2336 -78.7311 82° East 456 525 31,600 -1,680 Descending Cleveland Center
04:09PM 40.2620 -78.4910 109° East 520 598 29,300 -1,680 Descending FlightAware
04:10PM 40.2690 -78.4190 83° East 519 597 28,900 -960 Descending FlightAware
04:10PM 40.2739 -78.3619 82° East 488 562 28,600 -960 Descending New York Center
04:11PM 40.2850 -78.2660 82° East 513 590 27,600 -1,260 Descending FlightAware
04:12PM 40.2880 -78.2400 81° East 513 590 25,800 -1,020 Descending FlightAware
04:13PM 40.2990 -78.1350 82° East 513 590 25,800 -1,080 Level FlightAware
04:13PM 40.3122 -77.8106 84° East 507 583 25,000 -780 Descending New York Center
04:14PM 40.3100 -77.6333 84° East 496 571 25,000 -600 Level New York Center
04:15PM 40.3081 -77.4481 134° Southeast 477 549 23,900 -960 Descending New York Center
04:16PM 40.3361 -77.3228 134° Southeast 446 513 23,200 -960 Descending New York Center
04:18PM 40.3870 -77.0320 84° East 421 484 21,300 -1,080 Descending FlightAware
04:18PM 40.3747 -76.9939 107° East 431 496 21,100 -960 Descending New York Center
04:20PM 40.2770 -76.8710 132° Southeast 350 403 19,800 -780 Descending FlightAware
04:20PM 40.2400 -76.8210 134° Southeast 345 397 19,600 -1,140 Descending FlightAware
04:21PM 40.2080 -76.6520 104° East 347 399 17,800 -1,500 Descending FlightAware
04:22PM 40.1860 -76.5650 108° East 343 395 16,700 -1,260 Descending FlightAware
04:23PM 40.1559 -76.4398 107° East 338 389 15,700 -1,200 Descending FlightAware ADS-B
04:24PM 40.1414 -76.3795 107° East 335 386 15,100 -1,200 Descending FlightAware ADS-B
04:24PM 40.1270 -76.3198 107° East 334 384 14,500 -1,200 Descending FlightAware ADS-B
04:24PM 40.1222 -76.2986 106° East 334 384 14,300 -1,380 Descending FlightAware ADS-B
04:24PM 40.1200 -76.2844 101° East 334 384 14,100 -1,500 Descending FlightAware ADS-B
04:25PM 40.1190 -76.2747 98° East 334 384 14,000 -1,560 Descending FlightAware ADS-B
04:25PM 40.1149 -76.2136 95° East 330 380 13,200 -1,440 Descending FlightAware ADS-B
04:26PM 40.1107 -76.1550 95° East 322 371 12,600 -1,260 Descending FlightAware ADS-B
04:26PM 40.1065 -76.0925 95° East 314 361 11,900 -1,260 Descending FlightAware ADS-B
04:27PM 40.1020 -76.0282 95° East 307 353 11,200 -1,440 Descending FlightAware ADS-B
04:27PM 40.0980 -75.9723 95° East 304 350 10,400 -1,500 Descending FlightAware ADS-B
04:28PM 40.0953 -75.9341 95° East 302 348 9,900 -1,020 Descending FlightAware ADS-B
04:28PM 40.0933 -75.9052 95° East 302 348 9,800 -1,140 Descending FlightAware ADS-B
04:28PM 40.0909 -75.8726 95° East 306 352 9,300 -1,440 Descending FlightAware ADS-B
04:28PM 40.0888 -75.8430 95° East 304 350 9,000 -1,140 Descending FlightAware ADS-B
04:29PM 40.0868 -75.8150 95° East 297 342 8,700 -1,320 Descending FlightAware ADS-B
04:29PM 40.0847 -75.7855 95° East 292 336 8,300 -1,320 Descending FlightAware ADS-B
04:29PM 40.0827 -75.7578 95° East 288 331 8,000 -1,320 Descending FlightAware ADS-B
04:29PM 40.0808 -75.7291 95° East 288 331 7,600 -1,200 Descending FlightAware ADS-B
04:30PM 40.0801 -75.7137 93° East 286 329 7,500 -720 Descending FlightAware ADS-B
04:30PM 40.0789 -75.6841 93° East 289 333 7,300 -780 Descending FlightAware ADS-B
04:30PM 40.0777 -75.6564 93° East 290 334 7,100 -780 Descending FlightAware ADS-B
04:31PM 40.0758 -75.6136 93° East 289 333 6,800 -720 Descending FlightAware ADS-B
04:31PM 40.0742 -75.5797 94° East 288 331 6,600 -720 Descending FlightAware ADS-B
04:31PM 40.0728 -75.5508 94° East 287 330 6,400 -780 Descending FlightAware ADS-B
04:32PM 40.0709 -75.5121 94° East 283 326 6,100 -840 Descending FlightAware ADS-B
04:32PM 40.0696 -75.4855 94° East 280 322 5,900 -600 Descending FlightAware ADS-B
04:32PM 40.0684 -75.4593 93° East 278 320 5,800 -420 Descending FlightAware ADS-B
04:32PM 40.0671 -75.4338 94° East 278 320 5,700 -240 Descending FlightAware ADS-B
04:33PM 40.0659 -75.4082 93° East 279 321 5,700  Level FlightAware ADS-B
04:33PM 40.0646 -75.3824 94° East 279 321 5,700  Level FlightAware ADS-B
04:33PM 40.0633 -75.3567 94° East 279 321 5,700  Level FlightAware ADS-B
04:33PM 40.0618 -75.3260 94° East 279 321 5,700  Level FlightAware ADS-B
04:34PM 40.0605 -75.3008 94° East 279 321 5,700  Level FlightAware ADS-B
04:34PM 40.0592 -75.2751 94° East 276 318 5,700  Level FlightAware ADS-B
04:34PM 40.0579 -75.2492 94° East 260 299 5,700  Level FlightAware ADS-B
04:34PM 40.0562 -75.2290 96° East 246 283 5,700  Level FlightAware ADS-B
04:35PM 40.0530 -75.2133 105° East 232 267 5,700  Level FlightAware ADS-B
04:35PM 40.0484 -75.1902 105° East 219 252 5,700 -240 Level FlightAware ADS-B
04:35PM 40.0446 -75.1713 105° East 213 245 5,600 -780 Descending FlightAware ADS-B
04:35PM 40.0407 -75.1521 105° East 206 237 5,300 -1,320 Descending FlightAware ADS-B
04:36PM 40.0367 -75.1323 105° East 207 238 4,900 -1,500 Descending FlightAware ADS-B
04:36PM 40.0326 -75.1132 106° East 205 236 4,500 -1,560 Descending FlightAware ADS-B
04:36PM 40.0290 -75.0952 105° East 203 234 4,100 -1,560 Descending FlightAware ADS-B
04:36PM 40.0254 -75.0770 104° East 201 231 3,700 -1,440 Descending FlightAware ADS-B
04:37PM 40.0210 -75.0553 105° East 199 229 3,300 -1,140 Descending FlightAware ADS-B
04:37PM 40.0171 -75.0463 119° Southeast 193 222 3,200 -900 Descending FlightAware ADS-B
04:37PM 40.0142 -75.0427 136° Southeast 185 213 3,100 -1,140 Descending FlightAware ADS-B
04:37PM 40.0097 -75.0392 149° Southeast 181 208 3,000 -1,140 Descending FlightAware ADS-B
04:37PM 40.0060 -75.0375 161° South 176 203 2,900 -540 Descending FlightAware ADS-B
04:37PM 40.0006 -75.0356 165° South 169 194 2,900 -480 Level FlightAware ADS-B
04:38PM 39.9860 -75.0309 166° South 161 185 2,700 -240 Descending FlightAware ADS-B
04:38PM 39.9543 -75.0221 168° South 168 193 2,700  Level FlightAware ADS-B
04:39PM 39.9304 -75.0373 206° Southwest 164 189 2,700  Level FlightAware ADS-B
04:39PM 39.9243 -75.0421 211° Southwest 163 188 2,700 -240 Level FlightAware ADS-B
04:39PM 39.9121 -75.0562 222° Southwest 164 189 2,600 -480 Descending FlightAware ADS-B
04:39PM 39.9098 -75.0609 237° Southwest 167 192 2,500 -780 Descending FlightAware ADS-B
04:40PM 39.9088 -75.0637 245° Southwest 167 192 2,500 -720 Level FlightAware ADS-B
04:40PM 39.9074 -75.0690 251° West 168 193 2,400 -1,320 Descending FlightAware ADS-B
04:40PM 39.9056 -75.0773 254° West 168 193 2,200 -1,020 Descending FlightAware ADS-B
04:40PM 39.9015 -75.0925 251° West 166 191 2,000 -1,140 Descending FlightAware ADS-B
04:40PM 39.9000 -75.0981 251° West 165 190 1,800 -1,320 Descending FlightAware ADS-B
04:40PM 39.8972 -75.1139 257° West 160 184 1,500 -960 Descending FlightAware ADS-B
04:41PM 39.8944 -75.1278 255° West 164 189 1,300 -900 Descending FlightAware ADS-B
04:41PM 39.8916 -75.1404 254° West 161 185 1,100 -900 Descending FlightAware ADS-B
04:41PM 39.8890 -75.1544 256° West 150 173 900 -840 Descending FlightAware ADS-B
04:41PM 39.8865 -75.1664 255° West 139 160 700 -1,020 Descending FlightAware ADS-B
04:42PM 39.8851 -75.1735 256° West 139 160 500 -780 Descending FlightAware ADS-B
04:42PM 39.8812 -75.1924 255° West 137 158 300 -540 Descending FlightAware ADS-B
04:43PM 39.8750 -75.2250 256° West 133 153 -420 Descending FlightAware